createdAt,value
2022-08-23T00:01:20.281Z,19.94
2022-08-23T00:03:47.953Z,19.85
2022-08-23T00:06:14.365Z,19.84
2022-08-23T00:08:44.807Z,19.91
2022-08-23T00:11:32.587Z,19.87
2022-08-23T00:14:01.594Z,19.70
2022-08-23T00:16:28.696Z,19.72
2022-08-23T00:18:55.164Z,19.30
2022-08-23T00:21:22.255Z,19.35
2022-08-23T00:23:48.833Z,19.48
2022-08-23T00:26:15.259Z,19.32
2022-08-23T00:28:41.688Z,19.31
2022-08-23T00:31:08.092Z,19.32
2022-08-23T00:33:35.178Z,19.38
2022-08-23T00:36:01.592Z,19.33
2022-08-23T00:38:34.442Z,19.28
2022-08-23T00:41:01.732Z,19.42
2022-08-23T00:43:50.819Z,19.23
2022-08-23T00:46:59.310Z,19.16
2022-08-23T00:52:11.061Z,18.99
2022-08-23T00:54:39.520Z,19.06
2022-08-23T00:57:09.345Z,19.14
2022-08-23T00:59:35.766Z,19.26
2022-08-23T01:02:03.341Z,19.09
2022-08-23T01:04:33.094Z,19.05
2022-08-23T01:07:04.484Z,19.04
2022-08-23T01:09:31.073Z,18.80
2022-08-23T01:12:09.090Z,18.63
2022-08-23T01:14:41.604Z,18.80
2022-08-23T01:17:27.207Z,18.66
2022-08-23T01:19:58.040Z,18.70
2022-08-23T01:22:50.656Z,18.69
2022-08-23T01:25:19.503Z,18.49
2022-08-23T01:27:46.197Z,18.59
2022-08-23T01:30:14.580Z,18.59
2022-08-23T01:32:45.037Z,18.69
2022-08-23T01:35:11.492Z,18.66
2022-08-23T01:37:38.299Z,18.57
2022-08-23T01:40:05.980Z,18.40
2022-08-23T01:42:32.426Z,18.51
2022-08-23T01:44:58.813Z,18.33
2022-08-23T01:47:25.313Z,18.35
2022-08-23T01:49:51.784Z,18.20
2022-08-23T01:52:19.457Z,18.26
2022-08-23T01:54:45.946Z,18.16
2022-08-23T01:57:12.384Z,18.10
2022-08-23T01:59:38.935Z,18.34
2022-08-23T02:02:05.729Z,18.43
2022-08-23T02:04:32.186Z,18.19
2022-08-23T02:06:58.594Z,18.09
2022-08-23T02:09:25.538Z,18.11
2022-08-23T02:11:52.418Z,17.99
2022-08-23T02:14:20.159Z,18.13
2022-08-23T02:16:58.067Z,17.96
2022-08-23T02:19:30.504Z,17.87
2022-08-23T02:21:56.955Z,17.63
2022-08-23T02:24:24.763Z,17.56
2022-08-23T02:26:57.689Z,17.56
2022-08-23T02:29:25.762Z,17.64
2022-08-23T02:31:52.628Z,17.64
2022-08-23T02:37:04.449Z,17.51
2022-08-23T02:39:31.097Z,17.48
2022-08-23T02:41:57.595Z,17.49
2022-08-23T02:44:24.541Z,17.66
2022-08-23T02:46:51.139Z,17.46
2022-08-23T02:49:17.790Z,17.46
2022-08-23T02:51:44.766Z,17.35
2022-08-23T02:54:11.543Z,17.34
2022-08-23T02:56:38.287Z,17.32
2022-08-23T02:59:05.911Z,17.23
2022-08-23T03:01:35.603Z,17.27
2022-08-23T03:04:06.917Z,17.39
2022-08-23T03:06:34.232Z,17.32
2022-08-23T03:09:01.087Z,17.14
2022-08-23T03:11:27.912Z,17.05
2022-08-23T03:13:56.409Z,17.13
2022-08-23T03:16:23.602Z,17.05
2022-08-23T03:18:50.702Z,17.08
2022-08-23T03:21:20.804Z,17.02
2022-08-23T03:23:47.949Z,17.01
2022-08-23T03:26:15.755Z,16.89
2022-08-23T03:28:43.575Z,16.85
2022-08-23T03:31:11.335Z,16.86
2022-08-23T03:33:38.259Z,16.91
2022-08-23T03:36:06.533Z,16.99
2022-08-23T03:38:33.976Z,16.91
2022-08-23T03:41:01.196Z,16.97
2022-08-23T03:43:27.752Z,16.75
2022-08-23T03:45:54.198Z,16.80
2022-08-23T03:48:20.637Z,16.57
2022-08-23T03:50:47.085Z,16.40
2022-08-23T03:53:13.626Z,16.52
2022-08-23T03:55:42.938Z,16.56
2022-08-23T03:58:10.244Z,16.62
2022-08-23T04:00:36.808Z,16.56
2022-08-23T04:03:03.530Z,16.63
2022-08-23T04:05:29.926Z,16.70
2022-08-23T04:07:56.351Z,16.63
2022-08-23T04:10:22.776Z,16.69
2022-08-23T04:12:49.749Z,16.59
2022-08-23T04:15:16.187Z,16.43
2022-08-23T04:17:42.808Z,16.61
2022-08-23T04:20:09.656Z,16.58
2022-08-23T04:22:36.063Z,16.68
2022-08-23T04:25:03.353Z,16.61
2022-08-23T04:27:29.797Z,16.34
2022-08-23T04:29:56.260Z,16.28
2022-08-23T04:32:28.078Z,16.34
2022-08-23T04:34:55.084Z,16.48
2022-08-23T04:37:21.649Z,16.40
2022-08-23T04:40:06.536Z,16.34
2022-08-23T04:42:33.090Z,16.34
2022-08-23T04:45:01.248Z,16.32
2022-08-23T04:47:27.720Z,16.44
2022-08-23T04:49:54.146Z,16.60
2022-08-23T04:52:20.655Z,16.61
2022-08-23T04:54:47.300Z,16.55
2022-08-23T04:57:15.343Z,16.55
2022-08-23T04:59:42.379Z,16.78
2022-08-23T05:02:08.805Z,16.62
2022-08-23T05:04:35.215Z,16.69
2022-08-23T05:07:01.606Z,16.87
2022-08-23T05:09:28.065Z,16.69
2022-08-23T05:11:54.518Z,16.62
2022-08-23T05:14:20.997Z,16.74
2022-08-23T05:16:47.444Z,16.72
2022-08-23T05:19:13.907Z,16.87
2022-08-23T05:21:40.304Z,16.76
2022-08-23T05:24:06.734Z,16.85
2022-08-23T05:26:33.244Z,16.75
2022-08-23T05:28:59.670Z,16.58
2022-08-23T05:31:27.473Z,16.46
2022-08-23T05:33:53.992Z,16.52
2022-08-23T05:36:21.438Z,16.57
2022-08-23T05:38:48.254Z,16.61
2022-08-23T05:41:15.727Z,16.62
2022-08-23T05:43:42.618Z,16.55
2022-08-23T05:46:14.883Z,16.86
2022-08-23T05:48:47.951Z,17.05
2022-08-23T05:51:21.295Z,17.00
2022-08-23T05:53:49.924Z,16.95
2022-08-23T05:56:24.348Z,17.09
2022-08-23T05:58:54.533Z,17.10
2022-08-23T06:01:23.403Z,17.12
2022-08-23T06:03:50.422Z,17.20
2022-08-23T06:06:18.340Z,17.39
2022-08-23T06:08:48.543Z,17.34
2022-08-23T06:11:18.006Z,17.45
2022-08-23T06:13:46.624Z,17.59
2022-08-23T06:16:15.587Z,17.67
2022-08-23T06:18:42.505Z,17.84
2022-08-23T06:21:13.615Z,17.96
2022-08-23T06:23:41.306Z,17.96
2022-08-23T06:26:18.652Z,18.15
2022-08-23T06:28:50.873Z,18.21
2022-08-23T06:31:38.888Z,18.25
2022-08-23T06:34:05.462Z,18.35
2022-08-23T06:36:31.896Z,18.36
2022-08-23T06:38:58.303Z,18.56
2022-08-23T06:41:24.718Z,18.55
2022-08-23T06:43:51.705Z,18.67
2022-08-23T06:46:20.730Z,18.81
2022-08-23T06:48:50.891Z,19.01
2022-08-23T06:51:26.830Z,19.05
2022-08-23T06:53:55.079Z,19.14
2022-08-23T06:56:22.840Z,19.28
2022-08-23T06:58:49.255Z,19.43
2022-08-23T07:01:46.073Z,19.60
2022-08-23T07:04:16.031Z,19.73
2022-08-23T07:06:42.741Z,19.84
2022-08-23T07:09:09.161Z,19.97
2022-08-23T07:11:36.134Z,20.02
2022-08-23T07:14:05.103Z,20.15
2022-08-23T07:16:33.218Z,20.30
2022-08-23T07:18:59.683Z,20.36
2022-08-23T07:21:26.106Z,20.57
2022-08-23T07:23:53.319Z,20.71
2022-08-23T07:26:21.419Z,20.76
2022-08-23T07:28:47.816Z,21.00
2022-08-23T07:31:19.148Z,21.07
2022-08-23T07:33:46.285Z,21.23
2022-08-23T07:36:16.424Z,21.33
2022-08-23T07:38:43.994Z,21.38
2022-08-23T07:41:10.729Z,21.54
2022-08-23T07:43:38.301Z,21.59
2022-08-23T07:46:05.565Z,21.71
2022-08-23T07:48:52.977Z,21.67
2022-08-23T07:51:19.970Z,21.78
2022-08-23T07:53:47.503Z,22.03
2022-08-23T07:56:15.632Z,22.12
2022-08-23T07:58:42.063Z,22.31
2022-08-23T08:01:17.139Z,22.36
2022-08-23T08:03:45.387Z,22.51
2022-08-23T08:06:14.647Z,22.80
2022-08-23T08:08:41.901Z,22.81
2022-08-23T08:11:12.765Z,23.04
2022-08-23T08:13:43.374Z,23.14
2022-08-23T08:16:10.974Z,23.32
2022-08-23T08:18:37.753Z,23.43
2022-08-23T08:21:04.702Z,23.54
2022-08-23T08:23:31.191Z,23.69
2022-08-23T08:26:02.261Z,23.80
2022-08-23T08:28:28.673Z,23.94
2022-08-23T08:30:55.103Z,23.99
2022-08-23T08:33:21.482Z,24.27
2022-08-23T08:35:53.907Z,24.45
2022-08-23T08:38:24.822Z,24.56
2022-08-23T08:41:17.811Z,24.81
2022-08-23T08:43:59.171Z,24.79
2022-08-23T08:46:45.340Z,24.89
2022-08-23T08:49:37.122Z,24.85
2022-08-23T08:52:17.529Z,24.86
2022-08-23T08:54:48.268Z,25.10
2022-08-23T08:57:18.498Z,25.33
2022-08-23T09:00:02.635Z,25.44
2022-08-23T09:02:33.513Z,25.38
2022-08-23T09:05:02.715Z,25.34
2022-08-23T09:08:09.640Z,25.41
2022-08-23T09:10:54.160Z,25.55
2022-08-23T09:13:55.517Z,25.47
2022-08-23T09:16:40.623Z,25.74
2022-08-23T09:19:07.169Z,25.53
2022-08-23T09:21:44.255Z,25.71
2022-08-23T09:24:10.660Z,25.70
2022-08-23T09:26:37.232Z,26.15
2022-08-23T09:29:14.768Z,26.37
2022-08-23T09:31:52.889Z,26.54
2022-08-23T09:34:38.670Z,26.40
2022-08-23T09:37:18.972Z,26.77
2022-08-23T09:39:50.033Z,26.55
2022-08-23T09:42:37.453Z,26.62
2022-08-23T09:45:24.009Z,27.09
2022-08-23T09:47:50.980Z,27.12
2022-08-23T09:50:35.116Z,26.91
2022-08-23T09:53:07.793Z,26.89
2022-08-23T09:55:39.500Z,27.24
2022-08-23T09:58:08.068Z,27.08
2022-08-23T10:00:36.579Z,27.33
2022-08-23T10:03:24.861Z,27.77
2022-08-23T10:05:55.054Z,27.46
2022-08-23T10:08:28.952Z,27.66
2022-08-23T10:11:18.499Z,27.98
2022-08-23T10:13:46.795Z,27.51
2022-08-23T10:16:19.380Z,27.89
2022-08-23T10:18:48.816Z,28.11
2022-08-23T10:21:27.096Z,28.17
2022-08-23T10:24:14.259Z,28.67
2022-08-23T10:26:51.736Z,29.10
2022-08-23T10:29:40.883Z,29.43
2022-08-23T10:32:22.524Z,29.09
2022-08-23T10:35:06.246Z,28.89
2022-08-23T10:37:35.835Z,29.13
2022-08-23T10:40:11.161Z,28.93
2022-08-23T10:43:12.179Z,29.09
2022-08-23T10:45:40.455Z,29.46
2022-08-23T10:48:28.056Z,29.22
2022-08-23T10:50:57.253Z,29.51
2022-08-23T10:53:33.075Z,29.69
2022-08-23T10:56:03.112Z,29.93
2022-08-23T10:58:49.651Z,29.91
2022-08-23T11:01:22.052Z,29.85
2022-08-23T11:04:14.649Z,29.85
2022-08-23T11:06:44.657Z,30.03
2022-08-23T11:09:17.152Z,30.26
2022-08-23T11:11:48.794Z,30.10
2022-08-23T11:14:36.979Z,30.04
2022-08-23T11:17:07.741Z,30.11
2022-08-23T11:19:49.796Z,29.99
2022-08-23T11:22:27.932Z,30.24
2022-08-23T11:24:54.344Z,30.34
2022-08-23T11:27:42.189Z,30.68
2022-08-23T11:30:34.340Z,31.58
2022-08-23T11:33:10.291Z,31.41
2022-08-23T11:58:30.473Z,33.36
2022-08-23T12:01:17.112Z,34.05
2022-08-23T12:03:59.803Z,34.43
2022-08-23T12:06:38.980Z,34.33
2022-08-23T12:09:19.874Z,35.01
2022-08-23T12:12:18.608Z,34.38
2022-08-23T12:14:45.650Z,34.41
2022-08-23T12:17:11.988Z,35.36
2022-08-23T12:19:44.269Z,35.24
2022-08-23T12:22:23.092Z,34.82
2022-08-23T12:25:00.516Z,35.20
2022-08-23T12:27:37.085Z,35.24
2022-08-23T12:30:10.767Z,34.88
2022-08-23T12:32:55.165Z,34.76
2022-08-23T12:35:33.654Z,36.00
2022-08-23T12:38:18.920Z,35.69
2022-08-23T12:40:50.638Z,34.77
2022-08-23T12:43:22.938Z,35.53
2022-08-23T12:45:58.381Z,36.20
2022-08-23T12:48:28.341Z,37.17
2022-08-23T12:50:58.256Z,37.72
2022-08-23T12:53:37.269Z,38.02
2022-08-23T12:56:19.330Z,36.70
2022-08-23T12:58:52.184Z,36.86
2022-08-23T13:01:22.448Z,36.25
2022-08-23T13:03:52.263Z,36.44
2022-08-23T13:06:28.500Z,36.44
2022-08-23T13:09:01.657Z,35.56
2022-08-23T13:11:31.669Z,35.53
2022-08-23T13:13:58.106Z,36.14
2022-08-23T13:16:36.643Z,37.41
2022-08-23T13:19:16.508Z,38.58
2022-08-23T13:21:43.135Z,37.76
2022-08-23T13:24:38.645Z,38.83
2022-08-23T13:27:13.234Z,39.53
2022-08-23T13:30:05.159Z,37.70
2022-08-23T13:32:49.148Z,38.65
2022-08-23T13:35:49.716Z,39.34
2022-08-23T13:38:31.613Z,39.36
2022-08-23T13:41:01.368Z,38.10
2022-08-23T13:43:33.890Z,38.58
2022-08-23T13:46:15.069Z,38.57
2022-08-23T13:49:18.106Z,37.85
2022-08-23T13:52:41.292Z,38.03
2022-08-23T13:54:54.645Z,37.66
2022-08-23T13:57:21.827Z,37.57
2022-08-23T13:59:54.608Z,38.05
2022-08-23T14:02:23.013Z,39.06
2022-08-23T14:04:49.510Z,39.82
2022-08-23T14:07:16.083Z,40.47
2022-08-23T14:09:43.112Z,39.52
2022-08-23T14:12:14.567Z,40.08
2022-08-23T14:14:42.600Z,39.97
2022-08-23T14:17:11.365Z,38.81
2022-08-23T14:22:28.565Z,38.69
2022-08-23T14:24:55.025Z,39.46
2022-08-23T14:27:21.491Z,37.78
2022-08-23T14:29:47.904Z,37.02
2022-08-23T14:32:14.302Z,37.22
2022-08-23T14:34:40.693Z,34.92
2022-08-23T14:38:02.778Z,35.37
2022-08-23T14:39:53.876Z,35.57
2022-08-23T14:42:22.128Z,35.89
2022-08-23T14:44:48.601Z,35.39
2022-08-23T14:47:15.017Z,36.85
2022-08-23T14:49:41.438Z,36.79
2022-08-23T14:52:07.933Z,36.24
2022-08-23T14:54:34.737Z,35.73
2022-08-23T14:57:01.250Z,35.34
2022-08-23T14:59:27.784Z,34.76
2022-08-23T15:01:54.877Z,34.53
2022-08-23T15:04:23.141Z,34.22
2022-08-23T15:07:15.996Z,34.18
2022-08-23T15:09:36.808Z,34.66
2022-08-23T15:14:49.855Z,34.03
2022-08-23T15:17:16.375Z,34.19
2022-08-23T15:19:43.607Z,33.72
2022-08-23T15:22:21.682Z,34.13
2022-08-23T15:24:49.101Z,35.32
2022-08-23T15:27:15.492Z,34.30
2022-08-23T15:29:41.928Z,34.31
2022-08-23T15:32:10.166Z,32.89
2022-08-23T15:34:41.081Z,32.14
2022-08-23T15:37:13.377Z,32.22
2022-08-23T15:39:41.750Z,32.60
2022-08-23T15:42:08.287Z,32.45
2022-08-23T15:44:34.708Z,32.23
2022-08-23T15:47:01.990Z,32.32
2022-08-23T15:49:31.739Z,32.58
2022-08-23T15:52:00.525Z,32.58
2022-08-23T15:54:26.958Z,32.77
2022-08-23T15:56:53.402Z,32.41
2022-08-23T15:59:21.551Z,32.56
2022-08-23T16:01:48.587Z,32.62
2022-08-23T16:04:15.009Z,32.70
2022-08-23T16:06:41.598Z,33.13
2022-08-23T16:09:12.607Z,33.58
2022-08-23T16:11:40.678Z,33.34
2022-08-23T16:14:07.069Z,33.24
2022-08-23T16:16:37.489Z,32.76
2022-08-23T16:19:04.115Z,33.09
2022-08-23T16:21:31.039Z,33.06
2022-08-23T16:23:57.936Z,33.36
2022-08-23T16:26:35.237Z,33.55
2022-08-23T16:29:03.777Z,32.78
2022-08-23T16:31:37.626Z,33.14
2022-08-23T16:34:07.816Z,32.93
2022-08-23T16:36:34.365Z,33.18
2022-08-23T16:39:00.741Z,32.57
2022-08-23T16:41:27.123Z,32.65
2022-08-23T16:43:53.511Z,32.31
2022-08-23T16:46:20.450Z,32.61
2022-08-23T16:48:46.907Z,33.02
2022-08-23T16:51:13.367Z,32.85
2022-08-23T16:53:39.959Z,32.47
2022-08-23T16:56:07.188Z,32.99
2022-08-23T16:58:34.884Z,33.35
2022-08-23T17:01:01.363Z,33.39
2022-08-23T17:03:27.841Z,33.11
2022-08-23T17:05:54.249Z,32.97
2022-08-23T17:08:20.655Z,32.56
2022-08-23T17:10:47.705Z,32.02
2022-08-23T17:13:14.611Z,31.82
2022-08-23T17:15:41.544Z,31.50
2022-08-23T17:18:07.977Z,31.44
2022-08-23T17:20:37.019Z,31.16
2022-08-23T17:23:05.582Z,31.10
2022-08-23T17:25:32.486Z,30.96
2022-08-23T17:27:59.169Z,30.99
2022-08-23T17:30:26.437Z,30.78
2022-08-23T17:32:53.077Z,30.70
2022-08-23T17:35:22.821Z,30.47
2022-08-23T17:37:49.244Z,30.35
2022-08-23T17:40:21.112Z,30.31
2022-08-23T17:42:48.068Z,30.10
2022-08-23T17:45:15.390Z,30.15
2022-08-23T17:47:41.895Z,30.11
2022-08-23T17:50:08.799Z,29.55
2022-08-23T17:52:35.328Z,29.52
2022-08-23T17:55:01.723Z,29.24
2022-08-23T17:57:28.700Z,28.98
2022-08-23T17:59:58.121Z,28.94
2022-08-23T18:02:24.577Z,29.03
2022-08-23T18:04:51.085Z,28.97
2022-08-23T18:07:18.756Z,28.69
2022-08-23T18:09:48.658Z,28.78
2022-08-23T18:12:15.760Z,28.36
2022-08-23T18:14:42.204Z,28.26
2022-08-23T18:17:08.634Z,28.11
2022-08-23T18:19:35.196Z,27.99
2022-08-23T18:22:02.573Z,27.85
2022-08-23T18:24:29.257Z,27.68
2022-08-23T18:27:14.072Z,27.59
2022-08-23T18:29:46.146Z,27.45
2022-08-23T18:32:17.868Z,27.42
2022-08-23T18:34:44.273Z,27.25
2022-08-23T18:37:11.188Z,27.05
2022-08-23T18:39:37.594Z,26.99
2022-08-23T18:42:05.463Z,26.70
2022-08-23T18:44:32.315Z,26.83
2022-08-23T18:47:00.446Z,26.76
2022-08-23T18:49:26.861Z,26.72
2022-08-23T18:51:53.465Z,26.40
2022-08-23T18:54:20.087Z,26.38
2022-08-23T18:56:46.489Z,26.45
2022-08-23T18:59:12.895Z,26.35
2022-08-23T19:01:40.782Z,25.96
2022-08-23T19:04:08.767Z,25.82
2022-08-23T19:06:36.028Z,25.81
2022-08-23T19:09:04.017Z,25.63
2022-08-23T19:11:30.956Z,25.48
2022-08-23T19:13:57.844Z,25.34
2022-08-23T19:16:24.583Z,25.13
2022-08-23T19:18:51.201Z,25.13
2022-08-23T19:21:21.345Z,25.06
2022-08-23T19:23:49.662Z,24.94
2022-08-23T19:26:17.466Z,24.90
2022-08-23T19:28:44.246Z,24.79
2022-08-23T19:31:11.451Z,24.75
2022-08-23T19:33:38.076Z,24.74
2022-08-23T19:36:05.345Z,24.73
2022-08-23T19:38:31.915Z,24.84
2022-08-23T19:40:59.825Z,24.94
2022-08-23T19:43:26.693Z,25.00
2022-08-23T19:45:54.317Z,25.03
2022-08-23T19:48:21.294Z,24.97
2022-08-23T19:50:48.001Z,24.97
2022-08-23T19:53:14.479Z,24.91
2022-08-23T19:55:42.201Z,24.82
2022-08-23T19:58:13.311Z,24.84
2022-08-23T20:00:39.826Z,24.77
2022-08-23T20:03:06.361Z,24.68
2022-08-23T20:05:34.191Z,24.70
2022-08-23T20:08:00.872Z,24.60
2022-08-23T20:10:27.621Z,24.55
2022-08-23T20:12:54.094Z,24.37
2022-08-23T20:15:20.539Z,24.41
2022-08-23T20:17:46.986Z,24.23
2022-08-23T20:20:13.845Z,24.32
2022-08-23T20:22:59.587Z,24.27
2022-08-23T20:25:26.180Z,24.27
2022-08-23T20:27:52.648Z,24.41
2022-08-23T20:30:19.153Z,24.23
2022-08-23T20:32:45.688Z,24.19
2022-08-23T20:35:12.481Z,24.20
2022-08-23T20:37:39.523Z,24.14
2022-08-23T20:40:07.717Z,24.02
2022-08-23T20:42:34.327Z,24.08
2022-08-23T20:45:00.725Z,23.98
2022-08-23T20:47:27.185Z,23.92
2022-08-23T20:49:53.746Z,24.02
2022-08-23T20:52:20.187Z,24.06
2022-08-23T20:54:46.575Z,23.98
2022-08-23T20:57:13.025Z,23.75
2022-08-23T20:59:44.218Z,23.69
2022-08-23T21:02:11.350Z,23.43
2022-08-23T21:04:37.863Z,23.42
2022-08-23T21:07:08.119Z,23.13
2022-08-23T21:09:34.572Z,23.11
2022-08-23T21:12:00.967Z,23.06
2022-08-23T21:14:27.407Z,23.05
2022-08-23T21:16:53.836Z,22.89
2022-08-23T21:19:20.291Z,22.80
2022-08-23T21:21:47.152Z,22.74
2022-08-23T21:24:14.058Z,22.73
2022-08-23T21:26:40.612Z,22.85
2022-08-23T21:29:08.660Z,23.08
2022-08-23T21:31:35.192Z,23.07
2022-08-23T21:34:01.808Z,23.02
2022-08-23T21:36:28.705Z,23.00
2022-08-23T21:38:55.141Z,23.03
2022-08-23T21:41:33.592Z,23.01
2022-08-23T21:44:00.825Z,23.12
2022-08-23T21:46:27.296Z,22.92
2022-08-23T21:48:53.783Z,22.77
2022-08-23T21:51:21.893Z,22.67
2022-08-23T21:53:48.491Z,22.47
2022-08-23T21:56:14.911Z,22.41
2022-08-23T21:58:41.545Z,22.45
2022-08-23T22:01:08.978Z,22.50
2022-08-23T22:03:35.934Z,22.51
2022-08-23T22:06:03.311Z,22.48
2022-08-23T22:08:29.776Z,22.41
2022-08-23T22:10:58.146Z,22.35
2022-08-23T22:13:27.297Z,22.25
2022-08-23T22:15:53.775Z,22.23
2022-08-23T22:18:20.752Z,22.27
2022-08-23T22:20:47.185Z,22.27
2022-08-23T22:23:13.617Z,22.20
2022-08-23T22:25:40.156Z,22.15
2022-08-23T22:28:06.568Z,21.98
2022-08-23T22:30:33.025Z,21.88
2022-08-23T22:32:59.505Z,21.93
2022-08-23T22:35:25.990Z,21.87
2022-08-23T22:38:12.079Z,21.86
2022-08-23T22:40:39.368Z,21.87
2022-08-23T22:43:05.830Z,21.79
2022-08-23T22:45:32.247Z,21.76
2022-08-23T22:47:58.768Z,21.66
2022-08-23T22:50:25.315Z,21.65
2022-08-23T22:52:51.732Z,21.75
2022-08-23T22:55:18.174Z,21.87
2022-08-23T22:57:44.609Z,21.73
2022-08-23T23:00:11.831Z,21.77
2022-08-23T23:02:38.811Z,21.73
2022-08-23T23:05:07.094Z,21.71
2022-08-23T23:07:52.164Z,21.63
2022-08-23T23:10:18.630Z,21.52
2022-08-23T23:12:45.428Z,21.55
2022-08-23T23:15:12.142Z,21.53
2022-08-23T23:17:38.618Z,21.68
2022-08-23T23:20:23.774Z,21.50
2022-08-23T23:22:51.714Z,21.36
2022-08-23T23:25:18.480Z,21.23
2022-08-23T23:27:45.084Z,21.07
2022-08-23T23:30:11.886Z,21.02
2022-08-23T23:32:38.292Z,20.92
2022-08-23T23:35:06.481Z,20.91
2022-08-23T23:37:32.924Z,20.70
2022-08-23T23:40:00.197Z,20.99
2022-08-23T23:42:26.782Z,20.83
2022-08-23T23:44:53.207Z,20.87
2022-08-23T23:47:19.616Z,20.73
2022-08-23T23:49:46.864Z,20.74
2022-08-23T23:52:13.273Z,20.63
2022-08-23T23:54:40.866Z,20.60
2022-08-23T23:57:07.495Z,20.57
2022-08-23T23:59:34.480Z,20.54
